createdAt,value
2022-12-03T00:00:08.896Z,5.600000
2022-12-03T00:01:00.249Z,4.700000
2022-12-03T00:02:00.351Z,4.700000
2022-12-03T00:03:00.464Z,4.700000
2022-12-03T00:04:00.562Z,6.600000
2022-12-03T00:05:03.701Z,6.600000
2022-12-03T00:06:00.360Z,6.600000
2022-12-03T00:07:00.276Z,6.600000
2022-12-03T00:08:00.459Z,6.600000
2022-12-03T00:09:00.318Z,5.500000
2022-12-03T00:10:03.784Z,5.500000
2022-12-03T00:11:00.320Z,5.500000
2022-12-03T00:12:00.403Z,4.300000
2022-12-03T00:13:00.315Z,4.300000
2022-12-03T00:14:00.389Z,0.000000
2022-12-03T00:15:03.734Z,0.000000
2022-12-03T00:16:00.506Z,5.600000
2022-12-03T00:17:00.362Z,5.600000
2022-12-03T00:18:00.459Z,6.200000
2022-12-03T00:19:00.377Z,6.200000
2022-12-03T00:20:03.808Z,6.200000
2022-12-03T00:21:00.378Z,6.200000
2022-12-03T00:22:00.498Z,6.200000
2022-12-03T00:23:00.402Z,6.200000
2022-12-03T00:24:00.475Z,5.100000
2022-12-03T00:25:03.636Z,5.100000
2022-12-03T00:26:00.474Z,0.000000
2022-12-03T00:27:00.429Z,0.000000
2022-12-03T00:28:00.519Z,6.500000
2022-12-03T00:29:00.440Z,6.500000
2022-12-03T00:30:03.874Z,6.500000
2022-12-03T00:31:00.516Z,6.700000
2022-12-03T00:32:00.511Z,6.700000
2022-12-03T00:33:00.474Z,6.700000
2022-12-03T00:34:00.718Z,5.800000
2022-12-03T00:35:03.682Z,5.800000
2022-12-03T00:36:00.541Z,9.000000
2022-12-03T00:37:00.480Z,9.000000
2022-12-03T00:38:00.550Z,9.000000
2022-12-03T00:39:00.499Z,9.000000
2022-12-03T00:40:03.814Z,9.000000
2022-12-03T00:41:00.485Z,9.000000
2022-12-03T00:42:00.609Z,8.000000
2022-12-03T00:43:00.513Z,8.000000
2022-12-03T00:44:00.603Z,8.000000
2022-12-03T00:45:03.786Z,8.000000
2022-12-03T00:46:00.691Z,8.000000
2022-12-03T00:47:00.724Z,6.300000
2022-12-03T00:48:00.642Z,6.300000
2022-12-03T00:49:00.532Z,4.700000
2022-12-03T00:50:05.594Z,4.700000
2022-12-03T00:51:00.578Z,4.700000
2022-12-03T00:52:00.662Z,5.200000
2022-12-03T00:53:00.688Z,5.200000
2022-12-03T00:54:00.689Z,7.300000
2022-12-03T00:55:03.716Z,7.300000
2022-12-03T00:56:00.668Z,7.300000
2022-12-03T00:57:00.641Z,7.300000
2022-12-03T00:58:00.723Z,7.300000
2022-12-03T00:59:00.633Z,7.300000
2022-12-03T01:00:05.143Z,6.900000
2022-12-03T01:01:00.677Z,6.900000
2022-12-03T01:02:00.833Z,6.900000
2022-12-03T01:03:00.687Z,6.900000
2022-12-03T01:04:00.774Z,6.900000
2022-12-03T01:05:03.856Z,8.200000
2022-12-03T01:06:00.826Z,8.200000
2022-12-03T01:07:00.720Z,8.200000
2022-12-03T01:08:00.832Z,8.200000
2022-12-03T01:09:00.741Z,8.200000
2022-12-03T01:10:04.477Z,9.700000
2022-12-03T01:11:00.727Z,9.700000
2022-12-03T01:12:00.852Z,9.700000
2022-12-03T01:13:00.729Z,9.700000
2022-12-03T01:14:00.802Z,8.500000
2022-12-03T01:15:03.843Z,8.500000
2022-12-03T01:16:00.948Z,8.500000
2022-12-03T01:17:00.769Z,14.900000
2022-12-03T01:18:00.882Z,14.900000
2022-12-03T01:19:00.782Z,14.900000
2022-12-03T01:20:04.150Z,14.900000
2022-12-03T01:21:00.800Z,14.900000
2022-12-03T01:22:00.916Z,11.400000
2022-12-03T01:23:00.806Z,11.400000
2022-12-03T01:24:00.900Z,11.400000
2022-12-03T01:25:03.780Z,14.100000
2022-12-03T01:26:00.904Z,14.100000
2022-12-03T01:27:00.831Z,14.100000
2022-12-03T01:28:00.926Z,12.000000
2022-12-03T01:29:00.852Z,12.000000
2022-12-03T01:30:04.355Z,10.000000
2022-12-03T01:31:00.908Z,10.000000
2022-12-03T01:32:00.954Z,10.000000
2022-12-03T01:33:00.892Z,11.400000
2022-12-03T01:34:01.015Z,11.400000
2022-12-03T01:35:03.779Z,14.700000
2022-12-03T01:36:01.008Z,14.700000
2022-12-03T01:37:00.905Z,14.700000
2022-12-03T01:38:01.045Z,14.700000
2022-12-03T01:39:00.915Z,14.700000
2022-12-03T01:40:04.519Z,10.800000
2022-12-03T01:41:00.916Z,10.800000
2022-12-03T01:42:01.019Z,10.800000
2022-12-03T01:43:00.922Z,11.800000
2022-12-03T01:44:01.022Z,11.800000
2022-12-03T01:45:05.791Z,12.300000
2022-12-03T01:46:01.048Z,12.300000
2022-12-03T01:47:01.089Z,12.300000
2022-12-03T01:48:01.050Z,12.300000
2022-12-03T01:49:00.998Z,12.300000
2022-12-03T01:50:04.228Z,14.300000
2022-12-03T01:51:01.047Z,14.300000
2022-12-03T01:52:01.077Z,14.300000
2022-12-03T01:53:01.001Z,14.300000
2022-12-03T01:54:01.155Z,14.300000
2022-12-03T01:55:04.084Z,11.100000
2022-12-03T01:56:01.102Z,11.100000
2022-12-03T01:57:01.079Z,11.100000
2022-12-03T01:58:01.120Z,9.400000
2022-12-03T01:59:01.066Z,9.400000
2022-12-03T02:00:04.753Z,9.600000
2022-12-03T02:01:01.093Z,9.600000
2022-12-03T02:02:01.256Z,9.700000
2022-12-03T02:03:01.104Z,9.700000
2022-12-03T02:04:01.205Z,9.700000
2022-12-03T02:05:04.162Z,10.600000
2022-12-03T02:06:01.221Z,10.600000
2022-12-03T02:07:01.113Z,10.600000
2022-12-03T02:08:01.315Z,10.600000
2022-12-03T02:09:01.144Z,7.400000
2022-12-03T02:10:04.470Z,7.400000
2022-12-03T02:11:01.263Z,7.400000
2022-12-03T02:12:01.236Z,8.900000
2022-12-03T02:13:01.168Z,8.900000
2022-12-03T02:14:01.248Z,8.900000
2022-12-03T02:15:04.182Z,8.900000
2022-12-03T02:16:00.417Z,8.900000
2022-12-03T02:17:00.191Z,8.900000
2022-12-03T02:18:00.270Z,9.100000
2022-12-03T02:19:00.203Z,9.100000
2022-12-03T02:20:03.825Z,10.400000
2022-12-03T02:21:00.220Z,10.400000
2022-12-03T02:22:00.290Z,10.400000
2022-12-03T02:23:00.211Z,11.000000
2022-12-03T02:24:00.348Z,11.000000
2022-12-03T02:25:03.115Z,11.000000
2022-12-03T02:26:00.368Z,14.400000
2022-12-03T02:27:00.266Z,14.400000
2022-12-03T02:28:00.333Z,14.400000
2022-12-03T02:29:00.277Z,14.400000
2022-12-03T02:30:03.718Z,15.700000
2022-12-03T02:31:00.389Z,15.700000
2022-12-03T02:32:00.445Z,15.700000
2022-12-03T02:33:00.329Z,15.700000
2022-12-03T02:34:00.360Z,15.700000
2022-12-03T02:35:03.676Z,14.300000
2022-12-03T02:36:03.607Z,14.300000
2022-12-03T02:37:00.344Z,14.300000
2022-12-03T02:38:00.437Z,14.300000
2022-12-03T02:39:00.350Z,14.300000
2022-12-03T02:40:05.271Z,14.000000
2022-12-03T02:41:00.369Z,14.000000
2022-12-03T02:42:00.665Z,14.000000
2022-12-03T02:43:00.355Z,11.200000
2022-12-03T02:44:00.470Z,11.200000
2022-12-03T02:45:05.626Z,11.200000
2022-12-03T02:46:00.729Z,8.300000
2022-12-03T02:47:00.471Z,8.300000
2022-12-03T02:48:00.507Z,8.300000
2022-12-03T02:49:00.419Z,11.800000
2022-12-03T02:50:03.840Z,11.800000
2022-12-03T02:51:00.465Z,14.800000
2022-12-03T02:52:00.521Z,14.800000
2022-12-03T02:53:00.448Z,14.800000
2022-12-03T02:54:00.531Z,14.800000
2022-12-03T02:55:03.621Z,7.000000
2022-12-03T02:56:00.577Z,7.000000
2022-12-03T02:57:00.491Z,7.000000
2022-12-03T02:58:00.576Z,7.700000
2022-12-03T02:59:00.490Z,7.700000
2022-12-03T03:00:04.292Z,7.700000
2022-12-03T03:01:00.592Z,8.500000
2022-12-03T03:02:00.613Z,8.500000
2022-12-03T03:03:00.510Z,9.200000
2022-12-03T03:04:00.592Z,9.200000
2022-12-03T03:05:03.761Z,14.900000
2022-12-03T03:06:00.620Z,14.900000
2022-12-03T03:07:00.548Z,14.900000
2022-12-03T03:08:00.754Z,10.900000
2022-12-03T03:09:00.567Z,10.900000
2022-12-03T03:10:04.036Z,10.900000
2022-12-03T03:11:00.578Z,13.800000
2022-12-03T03:12:00.657Z,13.800000
2022-12-03T03:13:00.614Z,13.800000
2022-12-03T03:14:00.740Z,13.800000
2022-12-03T03:15:03.702Z,13.800000
2022-12-03T03:16:00.731Z,11.200000
2022-12-03T03:17:00.629Z,11.200000
2022-12-03T03:18:00.712Z,12.400000
2022-12-03T03:19:00.647Z,12.400000
2022-12-03T03:20:05.209Z,12.400000
2022-12-03T03:21:00.690Z,12.400000
2022-12-03T03:22:00.734Z,12.400000
2022-12-03T03:23:00.682Z,11.500000
2022-12-03T03:24:00.762Z,11.500000
2022-12-03T03:25:03.631Z,11.500000
2022-12-03T03:26:00.782Z,10.500000
2022-12-03T03:27:00.718Z,10.500000
2022-12-03T03:28:00.774Z,10.500000
2022-12-03T03:29:00.720Z,10.500000
2022-12-03T03:30:04.186Z,10.500000
2022-12-03T03:31:00.742Z,8.800000
2022-12-03T03:32:00.879Z,8.800000
2022-12-03T03:33:00.746Z,8.800000
2022-12-03T03:34:00.815Z,8.500000
2022-12-03T03:35:05.451Z,8.500000
2022-12-03T03:36:00.851Z,6.900000
2022-12-03T03:37:00.777Z,6.900000
2022-12-03T03:38:00.882Z,6.800000
2022-12-03T03:39:00.797Z,6.800000
2022-12-03T03:40:03.875Z,6.800000
2022-12-03T03:41:00.813Z,11.300000
2022-12-03T03:42:00.890Z,11.300000
2022-12-03T03:43:00.836Z,11.300000
2022-12-03T03:44:00.957Z,11.300000
2022-12-03T03:45:04.164Z,11.300000
2022-12-03T03:46:01.019Z,11.300000
2022-12-03T03:47:00.862Z,11.500000
2022-12-03T03:48:00.935Z,11.500000
2022-12-03T03:49:00.858Z,11.500000
2022-12-03T03:50:04.404Z,11.500000
2022-12-03T03:51:00.882Z,10.500000
2022-12-03T03:52:00.932Z,10.500000
2022-12-03T03:53:00.899Z,10.500000
2022-12-03T03:54:00.978Z,10.500000
2022-12-03T03:55:04.004Z,10.500000
2022-12-03T03:56:00.993Z,10.500000
2022-12-03T03:57:00.918Z,7.500000
2022-12-03T03:58:00.980Z,7.500000
2022-12-03T03:59:00.909Z,8.600000
2022-12-03T04:00:05.518Z,8.600000
2022-12-03T04:01:00.985Z,8.600000
2022-12-03T04:02:01.055Z,8.600000
2022-12-03T04:03:00.947Z,8.600000
2022-12-03T04:04:01.115Z,11.600000
2022-12-03T04:05:03.910Z,11.600000
2022-12-03T04:06:08.190Z,11.600000
2022-12-03T04:07:00.967Z,11.600000
2022-12-03T04:08:01.241Z,11.600000
2022-12-03T04:09:00.974Z,11.600000
2022-12-03T04:10:04.436Z,9.500000
2022-12-03T04:11:00.999Z,9.500000
2022-12-03T04:12:01.082Z,9.500000
2022-12-03T04:13:01.003Z,9.500000
2022-12-03T04:14:01.140Z,8.400000
2022-12-03T04:15:03.977Z,8.400000
2022-12-03T04:16:01.088Z,8.400000
2022-12-03T04:17:01.162Z,8.200000
2022-12-03T04:18:01.149Z,8.200000
2022-12-03T04:19:01.055Z,8.200000
2022-12-03T04:20:04.539Z,7.900000
2022-12-03T04:21:01.095Z,7.900000
2022-12-03T04:22:01.118Z,9.900000
2022-12-03T04:23:01.076Z,9.900000
2022-12-03T04:24:01.153Z,9.900000
2022-12-03T04:25:04.076Z,9.900000
2022-12-03T04:26:01.174Z,9.900000
2022-12-03T04:27:01.124Z,8.900000
2022-12-03T04:28:01.171Z,8.900000
2022-12-03T04:29:01.115Z,8.900000
2022-12-03T04:30:06.300Z,9.000000
2022-12-03T04:31:01.199Z,9.000000
2022-12-03T04:32:01.265Z,8.100000
2022-12-03T04:33:01.156Z,8.100000
2022-12-03T04:34:01.276Z,8.100000
2022-12-03T04:35:04.452Z,7.400000
2022-12-03T04:36:00.395Z,7.400000
2022-12-03T04:37:00.185Z,7.400000
2022-12-03T04:38:00.296Z,7.400000
2022-12-03T04:39:00.211Z,7.400000
2022-12-03T04:40:03.848Z,7.700000
2022-12-03T04:41:00.219Z,7.700000
2022-12-03T04:42:00.308Z,4.000000
2022-12-03T04:43:00.217Z,4.000000
2022-12-03T04:44:00.321Z,4.000000
2022-12-03T04:45:03.111Z,8.400000
2022-12-03T04:46:00.345Z,8.400000
2022-12-03T04:47:00.260Z,8.400000
2022-12-03T04:48:00.349Z,8.400000
2022-12-03T04:49:00.256Z,8.400000
2022-12-03T04:50:03.875Z,8.200000
2022-12-03T04:51:00.290Z,8.200000
2022-12-03T04:52:00.369Z,8.200000
2022-12-03T04:53:00.275Z,8.200000
2022-12-03T04:54:00.402Z,8.200000
2022-12-03T04:55:03.612Z,7.200000
2022-12-03T04:56:00.425Z,7.200000
2022-12-03T04:57:00.327Z,7.200000
2022-12-03T04:58:00.393Z,7.200000
2022-12-03T04:59:00.320Z,4.700000
2022-12-03T05:00:04.145Z,4.700000
2022-12-03T05:01:00.368Z,4.700000
2022-12-03T05:02:00.548Z,0.000000
2022-12-03T05:03:00.465Z,0.000000
2022-12-03T05:04:00.462Z,0.000000
2022-12-03T05:05:03.666Z,6.400000
2022-12-03T05:06:00.482Z,6.400000
2022-12-03T05:07:00.404Z,6.400000
2022-12-03T05:08:00.538Z,6.400000
2022-12-03T05:09:00.434Z,7.000000
2022-12-03T05:10:03.850Z,7.000000
2022-12-03T05:11:00.418Z,7.000000
2022-12-03T05:12:00.517Z,9.500000
2022-12-03T05:13:00.423Z,9.500000
2022-12-03T05:14:00.544Z,9.500000
2022-12-03T05:15:03.614Z,9.500000
2022-12-03T05:16:00.506Z,9.500000
2022-12-03T05:17:00.470Z,7.600000
2022-12-03T05:18:00.551Z,7.600000
2022-12-03T05:19:00.461Z,9.100000
2022-12-03T05:20:03.903Z,9.100000
2022-12-03T05:21:00.485Z,9.100000
2022-12-03T05:22:00.683Z,9.900000
2022-12-03T05:23:00.484Z,9.900000
2022-12-03T05:24:00.577Z,9.900000
2022-12-03T05:25:05.279Z,9.900000
2022-12-03T05:26:00.599Z,9.900000
2022-12-03T05:27:00.531Z,9.900000
2022-12-03T05:28:00.589Z,9.800000
2022-12-03T05:29:00.527Z,9.800000
2022-12-03T05:30:03.975Z,9.300000
2022-12-03T05:31:00.625Z,9.300000
2022-12-03T05:32:00.621Z,9.100000
2022-12-03T05:33:00.572Z,9.100000
2022-12-03T05:34:00.642Z,9.100000
2022-12-03T05:35:04.863Z,8.600000
2022-12-03T05:36:00.677Z,8.600000
2022-12-03T05:37:00.616Z,8.600000
2022-12-03T05:38:00.701Z,6.000000
2022-12-03T05:39:00.606Z,6.000000
2022-12-03T05:40:05.127Z,5.300000
2022-12-03T05:41:00.637Z,5.300000
2022-12-03T05:42:00.715Z,5.800000
2022-12-03T05:43:00.662Z,5.800000
2022-12-03T05:44:00.706Z,5.800000
2022-12-03T05:45:03.752Z,8.500000
2022-12-03T05:46:00.802Z,8.500000
2022-12-03T05:47:00.657Z,8.500000
2022-12-03T05:48:00.745Z,8.700000
2022-12-03T05:49:00.680Z,8.700000
2022-12-03T05:50:04.083Z,8.700000
2022-12-03T05:51:00.689Z,8.700000
2022-12-03T05:52:00.771Z,8.700000
2022-12-03T05:53:00.682Z,8.700000
2022-12-03T05:54:00.859Z,8.700000
2022-12-03T05:55:03.752Z,9.000000
2022-12-03T05:56:00.796Z,9.000000
2022-12-03T05:57:00.748Z,9.000000
2022-12-03T05:58:00.792Z,10.100000
2022-12-03T05:59:00.749Z,10.100000
2022-12-03T06:00:05.497Z,10.100000
2022-12-03T06:01:00.815Z,10.100000
2022-12-03T06:02:00.943Z,10.100000
2022-12-03T06:03:00.957Z,10.100000
2022-12-03T06:04:01.019Z,10.100000
2022-12-03T06:05:04.110Z,7.900000
2022-12-03T06:06:00.960Z,7.900000
2022-12-03T06:07:00.847Z,7.900000
2022-12-03T06:08:00.981Z,6.800000
2022-12-03T06:09:01.037Z,6.800000
2022-12-03T06:10:05.399Z,6.800000
2022-12-03T06:11:00.871Z,6.800000
2022-12-03T06:12:00.984Z,6.800000
2022-12-03T06:13:00.905Z,8.000000
2022-12-03T06:14:01.085Z,8.000000
2022-12-03T06:15:04.079Z,8.000000
2022-12-03T06:16:01.066Z,8.900000
2022-12-03T06:17:00.932Z,8.900000
2022-12-03T06:18:01.034Z,8.900000
2022-12-03T06:19:01.033Z,8.900000
2022-12-03T06:20:05.775Z,8.900000
2022-12-03T06:21:00.958Z,6.300000
2022-12-03T06:22:01.038Z,6.300000
2022-12-03T06:23:00.972Z,7.000000
2022-12-03T06:24:01.082Z,7.000000
2022-12-03T06:25:07.095Z,7.200000
2022-12-03T06:26:01.075Z,7.200000
2022-12-03T06:27:01.011Z,7.200000
2022-12-03T06:28:01.057Z,8.300000
2022-12-03T06:29:01.011Z,8.300000
2022-12-03T06:30:04.693Z,8.300000
2022-12-03T06:31:01.091Z,8.300000
2022-12-03T06:32:01.082Z,8.300000
2022-12-03T06:33:01.052Z,6.500000
2022-12-03T06:34:01.180Z,6.500000
2022-12-03T06:35:04.550Z,4.500000
2022-12-03T06:36:01.159Z,4.500000
2022-12-03T06:37:01.068Z,4.500000
2022-12-03T06:38:01.144Z,4.500000
2022-12-03T06:39:01.189Z,4.500000
2022-12-03T06:40:05.540Z,4.500000
2022-12-03T06:41:01.103Z,0.000000
2022-12-03T06:42:01.200Z,0.000000
2022-12-03T06:43:01.099Z,0.000000
2022-12-03T06:44:01.148Z,4.500000
2022-12-03T06:45:05.505Z,4.500000
2022-12-03T06:46:01.325Z,5.600000
2022-12-03T06:47:01.245Z,5.600000
2022-12-03T06:48:01.239Z,7.100000
2022-12-03T06:49:01.137Z,7.100000
2022-12-03T06:50:06.341Z,7.100000
2022-12-03T06:51:01.155Z,6.100000
2022-12-03T06:52:01.218Z,6.100000
2022-12-03T06:53:01.150Z,4.400000
2022-12-03T06:54:01.447Z,4.400000
2022-12-03T06:55:04.255Z,4.400000
2022-12-03T06:56:00.263Z,4.000000
2022-12-03T06:57:00.213Z,4.000000
2022-12-03T06:58:00.239Z,6.500000
2022-12-03T06:59:00.194Z,6.500000
2022-12-03T07:00:05.310Z,6.500000
2022-12-03T07:01:00.237Z,6.500000
2022-12-03T07:02:00.373Z,6.500000
2022-12-03T07:03:00.316Z,0.000000
2022-12-03T07:04:00.309Z,0.000000
2022-12-03T07:05:03.624Z,0.000000
2022-12-03T07:06:00.377Z,4.300000
2022-12-03T07:07:00.249Z,4.300000
2022-12-03T07:08:00.428Z,6.600000
2022-12-03T07:09:00.276Z,6.600000
2022-12-03T07:10:05.739Z,6.600000
2022-12-03T07:11:00.290Z,6.600000
2022-12-03T07:12:00.402Z,6.600000
2022-12-03T07:13:00.333Z,6.600000
2022-12-03T07:14:05.030Z,6.500000
2022-12-03T07:15:05.069Z,6.500000
2022-12-03T07:16:00.415Z,7.200000
2022-12-03T07:17:00.335Z,7.200000
2022-12-03T07:18:00.411Z,7.200000
2022-12-03T07:19:00.339Z,7.200000
2022-12-03T07:20:03.862Z,7.200000
2022-12-03T07:21:00.369Z,4.300000
2022-12-03T07:22:00.446Z,4.300000
2022-12-03T07:23:00.373Z,4.300000
2022-12-03T07:24:00.485Z,6.400000
2022-12-03T07:25:03.631Z,6.400000
2022-12-03T07:26:00.455Z,0.000000
2022-12-03T07:27:00.411Z,0.000000
2022-12-03T07:28:00.478Z,0.000000
2022-12-03T07:29:00.447Z,0.000000
2022-12-03T07:30:03.906Z,0.000000
2022-12-03T07:31:00.499Z,0.000000
2022-12-03T07:32:00.497Z,0.000000
2022-12-03T07:33:00.465Z,0.000000
2022-12-03T07:34:00.523Z,0.000000
2022-12-03T07:35:03.755Z,0.000000
2022-12-03T07:36:00.572Z,0.000000
2022-12-03T07:37:00.479Z,6.600000
2022-12-03T07:38:00.538Z,6.600000
2022-12-03T07:39:00.503Z,6.500000
2022-12-03T07:40:04.257Z,6.500000
2022-12-03T07:41:00.497Z,6.500000
2022-12-03T07:42:00.597Z,6.500000
2022-12-03T07:43:00.517Z,6.500000
2022-12-03T07:44:00.607Z,0.000000
2022-12-03T07:45:04.839Z,0.000000
2022-12-03T07:46:00.590Z,0.000000
2022-12-03T07:47:00.619Z,0.000000
2022-12-03T07:48:00.631Z,0.000000
2022-12-03T07:49:00.605Z,5.200000
2022-12-03T07:50:05.061Z,5.200000
2022-12-03T07:51:00.582Z,5.200000
2022-12-03T07:52:00.638Z,5.400000
2022-12-03T07:53:00.585Z,5.400000
2022-12-03T07:54:00.693Z,5.500000
2022-12-03T07:55:04.926Z,5.500000
2022-12-03T07:56:00.665Z,5.500000
2022-12-03T07:57:01.839Z,7.100000
2022-12-03T07:58:00.690Z,7.100000
2022-12-03T07:59:00.608Z,7.100000
2022-12-03T08:00:04.509Z,8.800000
2022-12-03T08:01:00.703Z,8.800000
2022-12-03T08:02:00.758Z,5.500000
2022-12-03T08:03:00.647Z,5.500000
2022-12-03T08:04:00.698Z,4.100000
2022-12-03T08:05:04.864Z,4.100000
2022-12-03T08:06:00.761Z,6.000000
2022-12-03T08:07:00.663Z,6.000000
2022-12-03T08:08:00.785Z,6.000000
2022-12-03T08:09:00.695Z,6.300000
2022-12-03T08:10:05.637Z,6.300000
2022-12-03T08:11:00.694Z,6.300000
2022-12-03T08:12:00.829Z,7.100000
2022-12-03T08:13:00.700Z,7.100000
2022-12-03T08:14:00.804Z,9.300000
2022-12-03T08:15:03.901Z,9.300000
2022-12-03T08:16:00.924Z,9.300000
2022-12-03T08:17:00.787Z,9.300000
2022-12-03T08:18:00.871Z,9.300000
2022-12-03T08:19:00.763Z,8.000000
2022-12-03T08:20:05.320Z,8.000000
2022-12-03T08:21:00.792Z,8.000000
2022-12-03T08:22:01.560Z,7.100000
2022-12-03T08:23:00.782Z,7.100000
2022-12-03T08:24:01.015Z,7.100000
2022-12-03T08:25:03.812Z,7.100000
2022-12-03T08:26:00.873Z,7.100000
2022-12-03T08:27:00.817Z,7.100000
2022-12-03T08:28:00.877Z,7.100000
2022-12-03T08:29:00.808Z,7.100000
2022-12-03T08:30:04.417Z,8.800000
2022-12-03T08:31:00.847Z,8.800000
2022-12-03T08:32:00.987Z,8.800000
2022-12-03T08:33:00.913Z,8.800000
2022-12-03T08:34:00.929Z,8.800000
2022-12-03T08:35:03.900Z,8.900000
2022-12-03T08:36:00.996Z,8.900000
2022-12-03T08:37:00.888Z,10.200000
2022-12-03T08:38:00.967Z,10.200000
2022-12-03T08:39:00.899Z,10.200000
2022-12-03T08:40:04.484Z,10.200000
2022-12-03T08:41:00.921Z,10.200000
2022-12-03T08:42:01.042Z,9.500000
2022-12-03T08:43:00.940Z,9.500000
2022-12-03T08:44:01.001Z,9.500000
2022-12-03T08:45:04.138Z,9.500000
2022-12-03T08:46:01.041Z,9.500000
2022-12-03T08:47:00.938Z,9.500000
2022-12-03T08:48:02.160Z,8.100000
2022-12-03T08:49:00.970Z,8.100000
2022-12-03T08:50:04.748Z,8.100000
2022-12-03T08:51:00.986Z,8.100000
2022-12-03T08:52:01.086Z,8.100000
2022-12-03T08:53:00.989Z,4.100000
2022-12-03T08:54:02.357Z,4.100000
2022-12-03T08:55:03.954Z,7.600000
2022-12-03T08:56:01.705Z,7.600000
2022-12-03T08:57:01.023Z,7.600000
2022-12-03T08:58:01.820Z,10.400000
2022-12-03T08:59:01.021Z,10.400000
2022-12-03T09:00:06.238Z,10.400000
2022-12-03T09:01:01.090Z,10.400000
2022-12-03T09:02:01.135Z,7.300000
2022-12-03T09:03:01.080Z,7.300000
2022-12-03T09:04:01.915Z,7.300000
2022-12-03T09:05:05.788Z,9.800000
2022-12-03T09:06:01.222Z,9.800000
2022-12-03T09:07:01.099Z,9.800000
2022-12-03T09:08:01.276Z,10.600000
2022-12-03T09:09:06.358Z,10.600000
2022-12-03T09:10:04.424Z,10.600000
2022-12-03T09:11:01.144Z,10.600000
2022-12-03T09:12:01.252Z,10.600000
2022-12-03T09:13:01.139Z,7.900000
2022-12-03T09:14:01.198Z,7.900000
2022-12-03T09:15:05.384Z,8.800000
2022-12-03T09:16:01.212Z,8.800000
2022-12-03T09:17:01.228Z,8.800000
2022-12-03T09:18:01.278Z,8.500000
2022-12-03T09:19:01.188Z,8.500000
2022-12-03T09:20:03.840Z,8.500000
2022-12-03T09:21:00.219Z,9.700000
2022-12-03T09:22:00.287Z,9.700000
2022-12-03T09:23:00.209Z,11.000000
2022-12-03T09:24:00.342Z,11.000000
2022-12-03T09:25:04.625Z,11.000000
2022-12-03T09:26:00.320Z,11.000000
2022-12-03T09:27:00.256Z,11.000000
2022-12-03T09:28:00.346Z,10.900000
2022-12-03T09:29:00.271Z,10.900000
2022-12-03T09:30:04.829Z,10.900000
2022-12-03T09:31:00.291Z,11.100000
2022-12-03T09:32:00.404Z,11.100000
2022-12-03T09:33:00.313Z,11.900000
2022-12-03T09:34:00.363Z,11.900000
2022-12-03T09:35:04.845Z,11.900000
2022-12-03T09:36:00.430Z,11.900000
2022-12-03T09:37:00.312Z,11.900000
2022-12-03T09:38:00.387Z,8.200000
2022-12-03T09:39:00.337Z,8.200000
2022-12-03T09:40:05.085Z,8.200000
2022-12-03T09:41:00.345Z,8.600000
2022-12-03T09:42:00.459Z,8.600000
2022-12-03T09:43:00.371Z,8.600000
2022-12-03T09:44:04.880Z,8.600000
2022-12-03T09:45:04.953Z,8.600000
2022-12-03T09:46:00.513Z,10.900000
2022-12-03T09:47:00.398Z,10.900000
2022-12-03T09:48:00.503Z,8.400000
2022-12-03T09:49:00.416Z,8.400000
2022-12-03T09:50:03.919Z,8.400000
2022-12-03T09:51:00.464Z,8.400000
2022-12-03T09:52:00.483Z,8.400000
2022-12-03T09:53:00.434Z,10.600000
2022-12-03T09:54:00.530Z,10.600000
2022-12-03T09:55:03.742Z,10.600000
2022-12-03T09:56:00.543Z,10.600000
2022-12-03T09:57:00.476Z,8.300000
2022-12-03T09:58:00.532Z,8.300000
2022-12-03T09:59:00.465Z,8.300000
2022-12-03T10:00:06.981Z,8.700000
2022-12-03T10:01:00.627Z,8.700000
2022-12-03T10:02:00.684Z,8.700000
2022-12-03T10:03:00.525Z,10.500000
2022-12-03T10:04:00.637Z,10.500000
2022-12-03T10:05:03.950Z,10.500000
2022-12-03T10:06:00.623Z,10.500000
2022-12-03T10:07:00.559Z,10.500000
2022-12-03T10:08:00.694Z,11.600000
2022-12-03T10:09:00.555Z,11.600000
2022-12-03T10:10:04.003Z,11.600000
2022-12-03T10:11:00.606Z,10.200000
2022-12-03T10:12:00.658Z,10.200000
2022-12-03T10:13:00.581Z,10.200000
2022-12-03T10:14:00.635Z,9.900000
2022-12-03T10:15:04.829Z,9.900000
2022-12-03T10:16:00.675Z,9.800000
2022-12-03T10:17:00.809Z,9.800000
2022-12-03T10:18:00.677Z,10.300000
2022-12-03T10:19:00.619Z,10.300000
2022-12-03T10:20:05.046Z,10.300000
2022-12-03T10:21:00.637Z,10.600000
2022-12-03T10:22:00.708Z,10.600000
2022-12-03T10:23:00.683Z,10.600000
2022-12-03T10:24:00.732Z,10.600000
2022-12-03T10:25:03.659Z,10.600000
2022-12-03T10:26:00.724Z,7.700000
2022-12-03T10:27:00.688Z,7.700000
2022-12-03T10:28:00.745Z,7.700000
2022-12-03T10:29:00.700Z,7.700000
2022-12-03T10:30:04.190Z,7.700000
2022-12-03T10:31:00.779Z,7.700000
2022-12-03T10:32:00.760Z,7.700000
2022-12-03T10:33:00.704Z,7.700000
2022-12-03T10:34:00.782Z,10.400000
2022-12-03T10:35:03.811Z,10.400000
2022-12-03T10:36:00.807Z,10.400000
2022-12-03T10:37:00.717Z,12.000000
2022-12-03T10:38:00.814Z,12.000000
2022-12-03T10:39:00.773Z,12.700000
2022-12-03T10:40:05.236Z,12.700000
2022-12-03T10:41:00.750Z,12.700000
2022-12-03T10:42:00.837Z,12.700000
2022-12-03T10:43:00.759Z,10.900000
2022-12-03T10:44:00.817Z,10.900000
2022-12-03T10:45:04.236Z,10.900000
2022-12-03T10:46:04.283Z,11.200000
2022-12-03T10:47:00.988Z,11.200000
2022-12-03T10:48:00.866Z,11.200000
2022-12-03T10:49:00.809Z,9.400000
2022-12-03T10:50:04.304Z,9.400000
2022-12-03T10:51:00.831Z,9.400000
2022-12-03T10:52:00.914Z,9.400000
2022-12-03T10:53:00.818Z,10.900000
2022-12-03T10:54:00.938Z,10.900000
2022-12-03T10:55:07.421Z,10.900000
2022-12-03T10:56:00.923Z,10.900000
2022-12-03T10:57:00.869Z,10.900000
2022-12-03T10:58:00.983Z,10.900000
2022-12-03T10:59:00.860Z,7.500000
2022-12-03T11:00:04.195Z,7.500000
2022-12-03T11:01:00.987Z,7.500000
2022-12-03T11:02:01.116Z,7.500000
2022-12-03T11:03:00.932Z,7.500000
2022-12-03T11:04:01.110Z,7.000000
2022-12-03T11:05:05.715Z,7.000000
2022-12-03T11:06:01.012Z,7.000000
2022-12-03T11:07:00.954Z,7.000000
2022-12-03T11:08:01.072Z,7.000000
2022-12-03T11:09:06.963Z,9.000000
2022-12-03T11:10:06.835Z,9.000000
2022-12-03T11:11:01.021Z,9.000000
2022-12-03T11:12:01.059Z,9.000000
2022-12-03T11:13:00.994Z,9.000000
2022-12-03T11:14:01.071Z,10.900000
2022-12-03T11:15:04.189Z,10.900000
2022-12-03T11:16:01.151Z,11.100000
2022-12-03T11:17:01.017Z,11.100000
2022-12-03T11:18:01.123Z,11.100000
2022-12-03T11:19:01.036Z,11.100000
2022-12-03T11:20:04.574Z,11.100000
2022-12-03T11:21:01.060Z,11.100000
2022-12-03T11:22:01.150Z,11.300000
2022-12-03T11:23:01.058Z,11.300000
2022-12-03T11:24:01.135Z,11.400000
2022-12-03T11:25:03.952Z,11.400000
2022-12-03T11:26:01.153Z,11.700000
2022-12-03T11:27:01.092Z,11.700000
2022-12-03T11:28:01.200Z,11.700000
2022-12-03T11:29:01.090Z,13.900000
2022-12-03T11:30:05.549Z,13.900000
2022-12-03T11:31:01.162Z,13.900000
2022-12-03T11:32:01.177Z,13.900000
2022-12-03T11:33:01.149Z,13.900000
2022-12-03T11:34:01.237Z,13.900000
2022-12-03T11:35:04.076Z,10.200000
2022-12-03T11:36:01.231Z,10.200000
2022-12-03T11:37:02.188Z,11.800000